sensor_id;sensor_type;location;lat;lon;timestamp;pressure;altitude;pressure_sealevel;temperature;humidity
75221;BME280;63802;53.232;6.570;2023-04-24T00:00:32;99790.28;;;10.08;96.40
75221;BME280;63802;53.232;6.570;2023-04-24T00:02:58;99789.53;;;10.07;96.66
75221;BME280;63802;53.232;6.570;2023-04-24T00:05:23;99781.72;;;10.06;96.13
75221;BME280;63802;53.232;6.570;2023-04-24T00:07:49;99779.75;;;10.06;96.30
75221;BME280;63802;53.232;6.570;2023-04-24T00:10:18;99780.94;;;10.09;96.17
75221;BME280;63802;53.232;6.570;2023-04-24T00:12:43;99773.91;;;10.08;96.23
75221;BME280;63802;53.232;6.570;2023-04-24T00:15:09;99780.97;;;10.13;96.58
75221;BME280;63802;53.232;6.570;2023-04-24T00:17:35;99772.44;;;10.14;96.24
75221;BME280;63802;53.232;6.570;2023-04-24T00:20:01;99759.94;;;10.09;96.48
75221;BME280;63802;53.232;6.570;2023-04-24T00:22:30;99761.13;;;10.12;96.41
75221;BME280;63802;53.232;6.570;2023-04-24T00:24:56;99757.56;;;10.08;96.37
75221;BME280;63802;53.232;6.570;2023-04-24T00:27:22;99763.06;;;10.12;96.53
75221;BME280;63802;53.232;6.570;2023-04-24T00:29:48;99753.31;;;10.07;96.62
75221;BME280;63802;53.232;6.570;2023-04-24T00:32:14;99756.38;;;10.05;96.46
75221;BME280;63802;53.232;6.570;2023-04-24T00:34:40;99752.88;;;9.98;96.64
75221;BME280;63802;53.232;6.570;2023-04-24T00:37:05;99758.34;;;9.98;96.62
75221;BME280;63802;53.232;6.570;2023-04-24T00:39:31;99759.88;;;9.95;96.76
75221;BME280;63802;53.232;6.570;2023-04-24T00:41:57;99738.03;;;9.85;96.33
75221;BME280;63802;53.232;6.570;2023-04-24T00:44:23;99748.16;;;9.88;96.54
75221;BME280;63802;53.232;6.570;2023-04-24T00:46:49;99749.66;;;9.75;96.41
75221;BME280;63802;53.232;6.570;2023-04-24T00:49:20;99752.75;;;9.66;95.80
75221;BME280;63802;53.232;6.570;2023-04-24T00:51:46;99750.34;;;9.58;96.13
75221;BME280;63802;53.232;6.570;2023-04-24T00:54:15;99753.50;;;9.60;95.96
75221;BME280;63802;53.232;6.570;2023-04-24T00:56:41;99751.94;;;9.59;95.82
75221;BME280;63802;53.232;6.570;2023-04-24T00:59:07;99753.47;;;9.56;96.12
75221;BME280;63802;53.232;6.570;2023-04-24T01:01:34;99744.88;;;9.51;96.09
75221;BME280;63802;53.232;6.570;2023-04-24T01:04:00;99752.69;;;9.52;95.99
75221;BME280;63802;53.232;6.570;2023-04-24T01:06:29;99752.66;;;9.49;95.89
75221;BME280;63802;53.232;6.570;2023-04-24T01:08:59;99753.44;;;9.49;95.71
75221;BME280;63802;53.232;6.570;2023-04-24T01:11:25;99756.56;;;9.48;95.63
75221;BME280;63802;53.232;6.570;2023-04-24T01:13:51;99755.38;;;9.45;95.60
75221;BME280;63802;53.232;6.570;2023-04-24T01:16:17;99758.09;;;9.45;95.69
75221;BME280;63802;53.232;6.570;2023-04-24T01:18:45;99751.47;;;9.42;95.26
75221;BME280;63802;53.232;6.570;2023-04-24T01:21:13;99741.72;;;9.41;95.34
75221;BME280;63802;53.232;6.570;2023-04-24T01:23:39;99746.41;;;9.44;95.55
75221;BME280;63802;53.232;6.570;2023-04-24T01:26:05;99748.75;;;9.42;95.48
75221;BME280;63802;53.232;6.570;2023-04-24T01:28:31;99747.16;;;9.41;95.48
75221;BME280;63802;53.232;6.570;2023-04-24T01:30:57;99742.47;;;9.38;95.30
75221;BME280;63802;53.232;6.570;2023-04-24T01:33:23;99742.13;;;9.40;95.59
75221;BME280;63802;53.232;6.570;2023-04-24T01:35:49;99746.38;;;9.37;95.53
75221;BME280;63802;53.232;6.570;2023-04-24T01:38:15;99716.72;;;9.22;95.55
75221;BME280;63802;53.232;6.570;2023-04-24T01:40:41;99741.28;;;9.36;95.58
75221;BME280;63802;53.232;6.570;2023-04-24T01:43:07;99740.91;;;9.34;95.59
75221;BME280;63802;53.232;6.570;2023-04-24T01:45:33;99739.31;;;9.29;95.33
75221;BME280;63802;53.232;6.570;2023-04-24T01:47:58;99743.63;;;9.30;95.64
75221;BME280;63802;53.232;6.570;2023-04-24T01:50:24;99740.06;;;9.26;95.68
75221;BME280;63802;53.232;6.570;2023-04-24T01:52:49;99735.41;;;9.23;95.47
75221;BME280;63802;53.232;6.570;2023-04-24T01:55:15;99731.50;;;9.24;95.38
75221;BME280;63802;53.232;6.570;2023-04-24T01:57:40;99732.25;;;9.21;95.84
75221;BME280;63802;53.232;6.570;2023-04-24T02:00:06;99737.69;;;9.21;95.55
75221;BME280;63802;53.232;6.570;2023-04-24T02:02:32;99723.31;;;9.17;95.65
75221;BME280;63802;53.232;6.570;2023-04-24T02:04:58;99720.19;;;9.15;95.83
75221;BME280;63802;53.232;6.570;2023-04-24T02:07:23;99726.41;;;9.19;95.53
75221;BME280;63802;53.232;6.570;2023-04-24T02:09:49;99715.88;;;9.14;95.61
75221;BME280;63802;53.232;6.570;2023-04-24T02:12:15;99726.03;;;9.17;95.87
75221;BME280;63802;53.232;6.570;2023-04-24T02:14:40;99726.41;;;9.19;95.72
75221;BME280;63802;53.232;6.570;2023-04-24T02:17:07;99719.44;;;9.18;95.60
75221;BME280;63802;53.232;6.570;2023-04-24T02:19:33;99730.69;;;9.17;95.57
75221;BME280;63802;53.232;6.570;2023-04-24T02:21:58;99729.13;;;9.19;95.83
75221;BME280;63802;53.232;6.570;2023-04-24T02:24:23;99724.47;;;9.16;96.04
75221;BME280;63802;53.232;6.570;2023-04-24T02:26:49;99735.38;;;9.20;95.96
75221;BME280;63802;53.232;6.570;2023-04-24T02:29:14;99730.72;;;9.20;95.99
75221;BME280;63802;53.232;6.570;2023-04-24T02:31:40;99737.69;;;9.21;96.22
75221;BME280;63802;53.232;6.570;2023-04-24T02:34:05;99732.25;;;9.21;95.98
75221;BME280;63802;53.232;6.570;2023-04-24T02:36:31;99733.84;;;9.22;96.31
75221;BME280;63802;53.232;6.570;2023-04-24T02:38:56;99729.56;;;9.25;96.09
75221;BME280;63802;53.232;6.570;2023-04-24T02:41:22;99734.63;;;9.26;96.21
75221;BME280;63802;53.232;6.570;2023-04-24T02:43:47;99730.38;;;9.25;96.10
75221;BME280;63802;53.232;6.570;2023-04-24T02:46:13;99726.47;;;9.26;96.21
75221;BME280;63802;53.232;6.570;2023-04-24T02:48:40;99738.53;;;9.25;96.24
75221;BME280;63802;53.232;6.570;2023-04-24T02:51:05;99735.06;;;9.28;96.76
75221;BME280;63802;53.232;6.570;2023-04-24T02:53:32;99727.66;;;9.29;96.33
75221;BME280;63802;53.232;6.570;2023-04-24T02:56:01;99740.50;;;9.32;96.58
75221;BME280;63802;53.232;6.570;2023-04-24T02:58:27;99734.66;;;9.30;96.59
75221;BME280;63802;53.232;6.570;2023-04-24T03:00:53;99725.31;;;9.27;96.26
75221;BME280;63802;53.232;6.570;2023-04-24T03:03:19;99736.63;;;9.33;96.59
75221;BME280;63802;53.232;6.570;2023-04-24T03:05:45;99725.31;;;9.31;96.74
75221;BME280;63802;53.232;6.570;2023-04-24T03:08:10;99735.09;;;9.35;96.78
75221;BME280;63802;53.232;6.570;2023-04-24T03:10:36;99727.69;;;9.32;96.80
75221;BME280;63802;53.232;6.570;2023-04-24T03:13:02;99721.00;;;9.26;96.95
75221;BME280;63802;53.232;6.570;2023-04-24T03:15:27;99751.06;;;9.40;96.65
75221;BME280;63802;53.232;6.570;2023-04-24T03:17:53;99737.81;;;9.39;96.52
75221;BME280;63802;53.232;6.570;2023-04-24T03:20:18;99730.00;;;9.34;96.54
75221;BME280;63802;53.232;6.570;2023-04-24T03:22:43;99742.50;;;9.42;96.34
75221;BME280;63802;53.232;6.570;2023-04-24T03:25:09;99747.16;;;9.41;96.88
75221;BME280;63802;53.232;6.570;2023-04-24T03:27:35;99736.66;;;9.40;96.60
75221;BME280;63802;53.232;6.570;2023-04-24T03:30:00;99731.19;;;9.36;96.92
75221;BME280;63802;53.232;6.570;2023-04-24T03:32:27;99740.19;;;9.40;96.62
75221;BME280;63802;53.232;6.570;2023-04-24T03:34:52;99743.25;;;9.35;96.85
75221;BME280;63802;53.232;6.570;2023-04-24T03:37:18;99748.34;;;9.44;96.77
75221;BME280;63802;53.232;6.570;2023-04-24T03:39:43;99738.59;;;9.39;96.89
75221;BME280;63802;53.232;6.570;2023-04-24T03:42:09;99752.25;;;9.47;96.99
75221;BME280;63802;53.232;6.570;2023-04-24T03:44:37;99749.94;;;9.45;96.77
75221;BME280;63802;53.232;6.570;2023-04-24T03:47:03;99741.72;;;9.38;96.86
75221;BME280;63802;53.232;6.570;2023-04-24T03:49:28;99742.13;;;9.43;96.83
75221;BME280;63802;53.232;6.570;2023-04-24T03:51:53;99744.44;;;9.41;97.19
75221;BME280;63802;53.232;6.570;2023-04-24T03:54:19;99744.47;;;9.45;96.96
75221;BME280;63802;53.232;6.570;2023-04-24T03:56:45;99751.06;;;9.44;96.83
75221;BME280;63802;53.232;6.570;2023-04-24T03:59:10;99733.13;;;9.36;97.00
75221;BME280;63802;53.232;6.570;2023-04-24T04:01:36;99739.75;;;9.38;96.79
75221;BME280;63802;53.232;6.570;2023-04-24T04:04:03;99751.47;;;9.42;96.95
75221;BME280;63802;53.232;6.570;2023-04-24T04:06:28;99748.31;;;9.37;96.89
75221;BME280;63802;53.232;6.570;2023-04-24T04:08:55;99753.00;;;9.40;97.21
75221;BME280;63802;53.232;6.570;2023-04-24T04:11:21;99754.94;;;9.39;97.21
75221;BME280;63802;53.232;6.570;2023-04-24T04:13:46;99757.28;;;9.41;96.88
75221;BME280;63802;53.232;6.570;2023-04-24T04:16:13;99756.50;;;9.40;96.95
75221;BME280;63802;53.232;6.570;2023-04-24T04:18:39;99764.25;;;9.38;97.15
75221;BME280;63802;53.232;6.570;2023-04-24T04:21:04;99764.69;;;9.40;96.99
75221;BME280;63802;53.232;6.570;2023-04-24T04:23:30;99766.59;;;9.36;97.07
75221;BME280;63802;53.232;6.570;2023-04-24T04:25:57;99775.16;;;9.38;97.10
75221;BME280;63802;53.232;6.570;2023-04-24T04:28:22;99770.88;;;9.37;96.96
75221;BME280;63802;53.232;6.570;2023-04-24T04:30:49;99780.19;;;9.36;97.08
75221;BME280;63802;53.232;6.570;2023-04-24T04:33:21;99770.84;;;9.34;97.10
75221;BME280;63802;53.232;6.570;2023-04-24T04:35:47;99779.41;;;9.36;96.98
75221;BME280;63802;53.232;6.570;2023-04-24T04:38:22;99781.72;;;9.34;96.84
75221;BME280;63802;53.232;6.570;2023-04-24T04:40:47;99784.81;;;9.29;96.69
75221;BME280;63802;53.232;6.570;2023-04-24T04:43:13;99789.13;;;9.33;96.92
75221;BME280;63802;53.232;6.570;2023-04-24T04:45:40;99794.56;;;9.33;96.93
75221;BME280;63802;53.232;6.570;2023-04-24T04:48:07;99796.88;;;9.28;96.78
75221;BME280;63802;53.232;6.570;2023-04-24T04:50:38;99807.41;;;9.36;96.88
75221;BME280;63802;53.232;6.570;2023-04-24T04:53:03;99801.97;;;9.36;96.98
75221;BME280;63802;53.232;6.570;2023-04-24T04:55:28;99803.91;;;9.32;96.93
75221;BME280;63802;53.232;6.570;2023-04-24T04:57:54;99812.84;;;9.33;96.97
75221;BME280;63802;53.232;6.570;2023-04-24T05:00:21;99819.44;;;9.32;97.07
75221;BME280;63802;53.232;6.570;2023-04-24T05:02:46;99819.47;;;9.35;97.40
75221;BME280;63802;53.232;6.570;2023-04-24T05:05:11;99820.22;;;9.32;97.47
75221;BME280;63802;53.232;6.570;2023-04-24T05:07:37;99817.13;;;9.30;97.35
75221;BME280;63802;53.232;6.570;2023-04-24T05:10:02;99818.25;;;9.29;97.39
75221;BME280;63802;53.232;6.570;2023-04-24T05:12:28;99820.97;;;9.29;97.05
75221;BME280;63802;53.232;6.570;2023-04-24T05:14:53;99823.34;;;9.34;97.39
75221;BME280;63802;53.232;6.570;2023-04-24T05:17:21;99836.56;;;9.36;97.44
75221;BME280;63802;53.232;6.570;2023-04-24T05:19:47;99838.19;;;9.40;97.36
75221;BME280;63802;53.232;6.570;2023-04-24T05:22:13;99835.09;;;9.42;97.28
75221;BME280;63802;53.232;6.570;2023-04-24T05:24:38;99838.19;;;9.40;97.55
75221;BME280;63802;53.232;6.570;2023-04-24T05:27:04;99839.00;;;9.44;97.77
75221;BME280;63802;53.232;6.570;2023-04-24T05:29:32;99833.53;;;9.44;97.50
75221;BME280;63802;53.232;6.570;2023-04-24T05:31:58;99845.63;;;9.47;97.47
75221;BME280;63802;53.232;6.570;2023-04-24T05:34:24;99845.97;;;9.42;97.80
75221;BME280;63802;53.232;6.570;2023-04-24T05:36:50;99850.63;;;9.41;97.73
75221;BME280;63802;53.232;6.570;2023-04-24T05:39:16;99861.56;;;9.49;97.72
75221;BME280;63802;53.232;6.570;2023-04-24T05:41:41;99865.88;;;9.50;97.62
75221;BME280;63802;53.232;6.570;2023-04-24T05:44:07;99872.13;;;9.54;97.55
75221;BME280;63802;53.232;6.570;2023-04-24T05:46:32;99870.94;;;9.51;97.94
75221;BME280;63802;53.232;6.570;2023-04-24T05:48:58;99863.50;;;9.44;97.65
75221;BME280;63802;53.232;6.570;2023-04-24T05:51:24;99882.59;;;9.52;98.03
75221;BME280;63802;53.232;6.570;2023-04-24T05:53:49;99879.88;;;9.52;97.74
75221;BME280;63802;53.232;6.570;2023-04-24T05:56:15;99883.34;;;9.49;97.60
75221;BME280;63802;53.232;6.570;2023-04-24T05:58:41;99891.94;;;9.51;97.60
75221;BME280;63802;53.232;6.570;2023-04-24T06:01:06;99875.47;;;9.36;97.91
75221;BME280;63802;53.232;6.570;2023-04-24T06:03:32;99895.00;;;9.45;97.91
75221;BME280;63802;53.232;6.570;2023-04-24T06:05:58;99892.16;;;9.31;97.96
75221;BME280;63802;53.232;6.570;2023-04-24T06:08:23;99900.72;;;9.33;98.09
75221;BME280;63802;53.232;6.570;2023-04-24T06:10:48;99894.09;;;9.27;98.08
75221;BME280;63802;53.232;6.570;2023-04-24T06:13:14;99899.19;;;9.32;97.94
75221;BME280;63802;53.232;6.570;2023-04-24T06:15:40;99908.53;;;9.35;98.08
75221;BME280;63802;53.232;6.570;2023-04-24T06:18:08;99912.78;;;9.32;97.90
75221;BME280;63802;53.232;6.570;2023-04-24T06:20:35;99906.13;;;9.26;97.78
75221;BME280;63802;53.232;6.570;2023-04-24T06:23:01;99918.66;;;9.34;97.87
75221;BME280;63802;53.232;6.570;2023-04-24T06:25:27;99924.50;;;9.36;97.73
75221;BME280;63802;53.232;6.570;2023-04-24T06:27:52;99926.81;;;9.34;97.78
75221;BME280;63802;53.232;6.570;2023-04-24T06:30:21;99919.84;;;9.37;97.85
75221;BME280;63802;53.232;6.570;2023-04-24T06:32:47;99924.88;;;9.35;97.82
75221;BME280;63802;53.232;6.570;2023-04-24T06:35:12;99932.66;;;9.36;97.88
75221;BME280;63802;53.232;6.570;2023-04-24T06:37:42;99933.84;;;9.39;97.68
75221;BME280;63802;53.232;6.570;2023-04-24T06:40:08;99936.56;;;9.39;97.93
75221;BME280;63802;53.232;6.570;2023-04-24T06:42:33;99939.28;;;9.35;97.60
75221;BME280;63802;53.232;6.570;2023-04-24T06:45:00;99946.28;;;9.36;97.81
75221;BME280;63802;53.232;6.570;2023-04-24T06:47:26;99943.22;;;9.41;97.55
75221;BME280;63802;53.232;6.570;2023-04-24T06:49:51;99950.19;;;9.39;97.87
75221;BME280;63802;53.232;6.570;2023-04-24T06:52:18;99951.72;;;9.36;97.52
75221;BME280;63802;53.232;6.570;2023-04-24T06:54:43;99955.97;;;9.34;97.71
75221;BME280;63802;53.232;6.570;2023-04-24T06:57:09;99946.28;;;9.36;97.45
75221;BME280;63802;53.232;6.570;2023-04-24T06:59:35;99953.69;;;9.39;97.85
75221;BME280;63802;53.232;6.570;2023-04-24T07:02:01;99962.59;;;9.36;97.56
75221;BME280;63802;53.232;6.570;2023-04-24T07:04:26;99966.53;;;9.39;97.47
75221;BME280;63802;53.232;6.570;2023-04-24T07:06:53;99981.31;;;9.38;97.34
75221;BME280;63802;53.232;6.570;2023-04-24T07:09:24;99976.56;;;9.31;97.06
75221;BME280;63802;53.232;6.570;2023-04-24T07:11:51;99975.81;;;9.34;97.05
75221;BME280;63802;53.232;6.570;2023-04-24T07:14:17;99986.66;;;9.31;97.46
75221;BME280;63802;53.232;6.570;2023-04-24T07:16:43;99988.63;;;9.30;97.46
75221;BME280;63802;53.232;6.570;2023-04-24T07:19:08;99984.72;;;9.31;97.31
75221;BME280;63802;53.232;6.570;2023-04-24T07:21:34;99981.19;;;9.27;97.15
75221;BME280;63802;53.232;6.570;2023-04-24T07:23:59;99992.00;;;9.20;96.96
75221;BME280;63802;53.232;6.570;2023-04-24T07:26:26;100000.59;;;9.22;97.08
75221;BME280;63802;53.232;6.570;2023-04-24T07:28:52;100006.34;;;9.17;96.83
75221;BME280;63802;53.232;6.570;2023-04-24T07:31:18;100008.34;;;9.20;97.04
75221;BME280;63802;53.232;6.570;2023-04-24T07:33:43;100009.06;;;9.17;97.06
75221;BME280;63802;53.232;6.570;2023-04-24T07:36:09;100014.56;;;9.21;97.08
75221;BME280;63802;53.232;6.570;2023-04-24T07:38:41;100020.34;;;9.16;96.86
75221;BME280;63802;53.232;6.570;2023-04-24T07:41:06;100027.66;;;9.12;97.07
75221;BME280;63802;53.232;6.570;2023-04-24T07:43:32;100015.09;;;9.00;97.02
75221;BME280;63802;53.232;6.570;2023-04-24T07:45:57;100028.84;;;9.11;96.74
75221;BME280;63802;53.232;6.570;2023-04-24T07:48:23;100030.78;;;9.10;96.88
75221;BME280;63802;53.232;6.570;2023-04-24T07:50:50;100038.59;;;9.15;96.58
75221;BME280;63802;53.232;6.570;2023-04-24T07:53:15;100032.34;;;9.11;96.91
75221;BME280;63802;53.232;6.570;2023-04-24T07:55:41;100052.63;;;9.17;96.41
75221;BME280;63802;53.232;6.570;2023-04-24T07:58:06;100056.84;;;9.11;96.27
75221;BME280;63802;53.232;6.570;2023-04-24T08:00:32;100057.91;;;9.03;96.64
75221;BME280;63802;53.232;6.570;2023-04-24T08:02:58;100063.34;;;9.03;96.15
75221;BME280;63802;53.232;6.570;2023-04-24T08:05:24;100066.47;;;9.05;96.54
75221;BME280;63802;53.232;6.570;2023-04-24T08:07:52;100065.75;;;9.08;96.43
75221;BME280;63802;53.232;6.570;2023-04-24T08:10:18;100066.44;;;9.02;96.08
75221;BME280;63802;53.232;6.570;2023-04-24T08:12:44;100068.38;;;9.01;96.15
75221;BME280;63802;53.232;6.570;2023-04-24T08:15:09;100067.88;;;8.92;95.67
75221;BME280;63802;53.232;6.570;2023-04-24T08:17:35;100088.88;;;8.95;96.12
75221;BME280;63802;53.232;6.570;2023-04-24T08:20:01;100087.28;;;8.91;95.65
75221;BME280;63802;53.232;6.570;2023-04-24T08:22:28;100094.41;;;8.99;96.14
75221;BME280;63802;53.232;6.570;2023-04-24T08:24:54;100093.69;;;9.05;95.92
75221;BME280;63802;53.232;6.570;2023-04-24T08:27:19;100097.66;;;9.11;95.57
75221;BME280;63802;53.232;6.570;2023-04-24T08:29:45;100110.03;;;9.05;95.65
75221;BME280;63802;53.232;6.570;2023-04-24T08:32:10;100109.09;;;8.94;95.53
75221;BME280;63802;53.232;6.570;2023-04-24T08:34:36;100122.31;;;8.92;95.37
75221;BME280;63802;53.232;6.570;2023-04-24T08:37:02;100127.75;;;8.92;95.66
75221;BME280;63802;53.232;6.570;2023-04-24T08:39:27;100116.00;;;8.88;95.56
75221;BME280;63802;53.232;6.570;2023-04-24T08:41:55;100123.03;;;8.89;95.32
75221;BME280;63802;53.232;6.570;2023-04-24T08:44:20;100133.00;;;8.78;95.34
75221;BME280;63802;53.232;6.570;2023-04-24T08:46:47;100141.47;;;8.73;95.36
75221;BME280;63802;53.232;6.570;2023-04-24T08:49:14;100141.34;;;8.66;95.26
75221;BME280;63802;53.232;6.570;2023-04-24T08:51:43;100143.53;;;8.57;94.90
75221;BME280;63802;53.232;6.570;2023-04-24T08:54:09;100153.25;;;8.58;95.00
75221;BME280;63802;53.232;6.570;2023-04-24T08:56:36;100151.28;;;8.55;95.23
75221;BME280;63802;53.232;6.570;2023-04-24T08:59:05;100163.50;;;8.42;94.88
75221;BME280;63802;53.232;6.570;2023-04-24T09:01:32;100168.81;;;8.35;94.67
75221;BME280;63802;53.232;6.570;2023-04-24T09:04:02;100178.53;;;8.36;94.80
75221;BME280;63802;53.232;6.570;2023-04-24T09:06:28;100167.81;;;8.24;94.58
75221;BME280;63802;53.232;6.570;2023-04-24T09:08:54;100187.41;;;8.33;94.33
75221;BME280;63802;53.232;6.570;2023-04-24T09:11:21;100176.25;;;8.19;94.01
75221;BME280;63802;53.232;6.570;2023-04-24T09:13:48;100189.13;;;8.22;93.92
75221;BME280;63802;53.232;6.570;2023-04-24T09:16:14;100192.00;;;8.29;93.83
75221;BME280;63802;53.232;6.570;2023-04-24T09:18:40;100188.00;;;8.23;93.67
75221;BME280;63802;53.232;6.570;2023-04-24T09:21:09;100194.19;;;8.23;93.87
75221;BME280;63802;53.232;6.570;2023-04-24T09:23:35;100204.03;;;8.28;93.38
75221;BME280;63802;53.232;6.570;2023-04-24T09:26:02;100199.44;;;8.32;93.51
75221;BME280;63802;53.232;6.570;2023-04-24T09:28:45;100191.59;;;8.27;93.44
75221;BME280;63802;53.232;6.570;2023-04-24T09:31:18;100207.72;;;8.39;92.98
75221;BME280;63802;53.232;6.570;2023-04-24T09:36:34;100197.56;;;8.36;92.38
75221;BME280;63802;53.232;6.570;2023-04-24T09:39:26;100224.88;;;8.43;92.33
75221;BME280;63802;53.232;6.570;2023-04-24T09:41:55;100211.66;;;8.41;91.90
75221;BME280;63802;53.232;6.570;2023-04-24T09:44:27;100227.88;;;8.38;92.01
75221;BME280;63802;53.232;6.570;2023-04-24T09:46:55;100224.75;;;8.36;91.79
75221;BME280;63802;53.232;6.570;2023-04-24T09:49:30;100228.91;;;8.30;92.05
75221;BME280;63802;53.232;6.570;2023-04-24T09:52:05;100241.06;;;8.36;92.21
75221;BME280;63802;53.232;6.570;2023-04-24T09:54:30;100247.22;;;8.33;92.57
75221;BME280;63802;53.232;6.570;2023-04-24T09:56:56;100254.22;;;8.34;92.19
75221;BME280;63802;53.232;6.570;2023-04-24T09:59:22;100255.06;;;8.38;91.96
75221;BME280;63802;53.232;6.570;2023-04-24T10:01:48;100251.34;;;8.46;91.95
75221;BME280;63802;53.232;6.570;2023-04-24T10:04:25;100265.72;;;8.69;91.31
75221;BME280;63802;53.232;6.570;2023-04-24T10:06:52;100262.31;;;8.98;91.30
75221;BME280;63802;53.232;6.570;2023-04-24T10:09:20;100263.13;;;9.02;90.52
75221;BME280;63802;53.232;6.570;2023-04-24T10:11:48;100263.59;;;9.30;90.23
75221;BME280;63802;53.232;6.570;2023-04-24T10:14:20;100261.28;;;9.32;89.26
75221;BME280;63802;53.232;6.570;2023-04-24T10:16:49;100270.66;;;9.35;88.38
75221;BME280;63802;53.232;6.570;2023-04-24T10:19:15;100271.44;;;9.35;87.19
75221;BME280;63802;53.232;6.570;2023-04-24T10:21:43;100268.53;;;9.51;86.45
75221;BME280;63802;53.232;6.570;2023-04-24T10:24:14;100268.00;;;9.72;85.64
75221;BME280;63802;53.232;6.570;2023-04-24T10:26:41;100276.94;;;9.69;83.94
75221;BME280;63802;53.232;6.570;2023-04-24T10:29:06;100282.91;;;9.78;83.28
75221;BME280;63802;53.232;6.570;2023-04-24T10:31:38;100289.25;;;9.89;82.34
75221;BME280;63802;53.232;6.570;2023-04-24T10:34:05;100291.81;;;10.04;82.12
75221;BME280;63802;53.232;6.570;2023-04-24T10:36:32;100309.38;;;10.10;81.75
75221;BME280;63802;53.232;6.570;2023-04-24T10:39:01;100302.25;;;10.29;81.26
75221;BME280;63802;53.232;6.570;2023-04-24T10:41:30;100311.63;;;10.31;81.55
75221;BME280;63802;53.232;6.570;2023-04-24T10:44:12;100310.13;;;10.37;80.65
75221;BME280;63802;53.232;6.570;2023-04-24T10:46:42;100314.81;;;10.40;80.36
75221;BME280;63802;53.232;6.570;2023-04-24T10:49:08;100321.94;;;10.48;80.52
75221;BME280;63802;53.232;6.570;2023-04-24T10:59:43;100337.31;;;10.30;79.12
75221;BME280;63802;53.232;6.570;2023-04-24T11:02:09;100336.59;;;10.37;79.29
75221;BME280;63802;53.232;6.570;2023-04-24T11:04:35;100335.84;;;10.40;79.52
75221;BME280;63802;53.232;6.570;2023-04-24T11:07:01;100341.28;;;10.36;79.06
75221;BME280;63802;53.232;6.570;2023-04-24T11:09:28;100347.41;;;10.30;78.63
75221;BME280;63802;53.232;6.570;2023-04-24T11:12:11;100341.09;;;10.22;78.91
75221;BME280;63802;53.232;6.570;2023-04-24T11:17:37;100367.31;;;10.00;77.59
75221;BME280;63802;53.232;6.570;2023-04-24T11:20:07;100360.88;;;9.86;77.75
75221;BME280;63802;53.232;6.570;2023-04-24T11:22:33;100373.03;;;9.66;77.89
75221;BME280;63802;53.232;6.570;2023-04-24T11:25:00;100366.19;;;9.53;78.67
75221;BME280;63802;53.232;6.570;2023-04-24T11:27:38;100367.47;;;9.59;78.77
75221;BME280;63802;53.232;6.570;2023-04-24T11:30:04;100360.13;;;9.63;78.50
75221;BME280;63802;53.232;6.570;2023-04-24T11:37:48;100375.34;;;9.64;79.60
75221;BME280;63802;53.232;6.570;2023-04-24T11:40:15;100383.72;;;9.52;79.45
75221;BME280;63802;53.232;6.570;2023-04-24T11:42:46;100389.16;;;9.52;80.23
75221;BME280;63802;53.232;6.570;2023-04-24T11:47:42;100382.69;;;9.37;79.42
75221;BME280;63802;53.232;6.570;2023-04-24T11:50:12;100391.41;;;9.46;78.96
75221;BME280;63802;53.232;6.570;2023-04-24T11:52:40;100390.72;;;9.53;78.76
75221;BME280;63802;53.232;6.570;2023-04-24T12:02:41;100396.81;;;9.42;78.46
75221;BME280;63802;53.232;6.570;2023-04-24T12:05:06;100404.38;;;9.30;78.45
75221;BME280;63802;53.232;6.570;2023-04-24T12:07:41;100417.66;;;9.12;78.74
75221;BME280;63802;53.232;6.570;2023-04-24T12:10:31;100415.78;;;8.94;80.25
75221;BME280;63802;53.232;6.570;2023-04-24T12:12:58;100419.22;;;8.91;80.82
75221;BME280;63802;53.232;6.570;2023-04-24T12:15:24;100439.34;;;8.86;81.22
75221;BME280;63802;53.232;6.570;2023-04-24T12:17:51;100428.31;;;8.98;81.87
75221;BME280;63802;53.232;6.570;2023-04-24T12:20:17;100435.91;;;8.89;81.31
75221;BME280;63802;53.232;6.570;2023-04-24T12:22:52;100433.31;;;8.96;81.03
75221;BME280;63802;53.232;6.570;2023-04-24T12:25:21;100434.25;;;9.26;80.87
75221;BME280;63802;53.232;6.570;2023-04-24T12:27:55;100436.81;;;9.65;79.91
75221;BME280;63802;53.232;6.570;2023-04-24T12:30:25;100443.69;;;9.81;78.07
75221;BME280;63802;53.232;6.570;2023-04-24T12:32:51;100429.22;;;9.74;77.61
75221;BME280;63802;53.232;6.570;2023-04-24T12:35:21;100454.47;;;9.97;76.92
75221;BME280;63802;53.232;6.570;2023-04-24T12:37:47;100443.25;;;10.28;76.32
75221;BME280;63802;53.232;6.570;2023-04-24T12:40:13;100463.28;;;10.13;75.42
75221;BME280;63802;53.232;6.570;2023-04-24T12:42:44;100449.66;;;10.13;74.52
75221;BME280;63802;53.232;6.570;2023-04-24T12:45:13;100466.25;;;10.04;74.12
75221;BME280;63802;53.232;6.570;2023-04-24T12:47:40;100444.56;;;9.85;73.07
75221;BME280;63802;53.232;6.570;2023-04-24T12:50:11;100467.25;;;9.67;73.35
75221;BME280;63802;53.232;6.570;2023-04-24T12:52:41;100456.88;;;9.53;73.17
75221;BME280;63802;53.232;6.570;2023-04-24T12:55:07;100450.63;;;9.53;73.84
75221;BME280;63802;53.232;6.570;2023-04-24T12:57:33;100466.09;;;9.45;74.00
75221;BME280;63802;53.232;6.570;2023-04-24T13:00:03;100467.38;;;9.28;74.19
75221;BME280;63802;53.232;6.570;2023-04-24T13:02:30;100463.22;;;9.15;74.70
75221;BME280;63802;53.232;6.570;2023-04-24T13:04:57;100471.69;;;9.10;75.73
75221;BME280;63802;53.232;6.570;2023-04-24T13:07:22;100477.50;;;9.09;76.01
75221;BME280;63802;53.232;6.570;2023-04-24T13:09:49;100469.25;;;9.05;76.38
75221;BME280;63802;53.232;6.570;2023-04-24T13:12:15;100480.44;;;9.00;76.55
75221;BME280;63802;53.232;6.570;2023-04-24T13:14:41;100487.03;;;8.99;77.35
75221;BME280;63802;53.232;6.570;2023-04-24T13:17:06;100488.03;;;8.72;77.56
75221;BME280;63802;53.232;6.570;2023-04-24T13:19:41;100485.59;;;8.67;78.20
75221;BME280;63802;53.232;6.570;2023-04-24T13:22:08;100489.97;;;8.71;78.57
75221;BME280;63802;53.232;6.570;2023-04-24T13:24:34;100490.47;;;8.77;79.23
75221;BME280;63802;53.232;6.570;2023-04-24T13:26:59;100495.56;;;8.78;78.98
75221;BME280;63802;53.232;6.570;2023-04-24T13:29:25;100485.59;;;8.86;79.37
75221;BME280;63802;53.232;6.570;2023-04-24T13:31:51;100492.41;;;8.96;79.73